Terminal Aerodrome Forecast
Issued by NWS

Current Version | Previous Version | Text Only | Print | Product List | Glossary On
Versions: 1 2 3 4 5 6 7 8 9 10 11 12 13 14 15 16 17
000
FTUS42 KTBW 041700
TAFLAL
TAF
KLAL 041739Z 0418/0518 17011G17KT P6SM SCT035
     FM042300 25007KT P6SM FEW060
     FM050200 VRB03KT P6SM SCT040
     FM050900 15006KT 3SM BR SCT005
     FM051400 17007KT P6SM SCT025 BKN035=

USA.gov is the U.S. government's official web portal to all federal, state and local government web resources and services.